createdAt,value
2023-03-05T00:01:50.190Z,66.57
2023-03-05T00:04:16.971Z,66.01
2023-03-05T00:06:43.893Z,66.78
2023-03-05T00:09:10.856Z,66.81
2023-03-05T00:11:37.386Z,66.81
2023-03-05T00:14:04.470Z,65.99
2023-03-05T00:16:31.329Z,66.19
2023-03-05T00:18:59.506Z,66.24
2023-03-05T00:21:31.517Z,65.62
2023-03-05T00:23:59.779Z,66.87
2023-03-05T00:26:26.598Z,66.15
2023-03-05T00:28:54.519Z,65.93
2023-03-05T00:31:24.090Z,66.00
2023-03-05T00:33:55.695Z,66.48
2023-03-05T00:36:23.857Z,66.51
2023-03-05T00:38:50.796Z,66.38
2023-03-05T00:41:17.360Z,66.00
2023-03-05T00:43:44.028Z,67.26
2023-03-05T00:46:11.233Z,66.41
2023-03-05T00:48:37.880Z,66.94
2023-03-05T00:51:04.878Z,66.55
2023-03-05T00:53:31.580Z,67.45
2023-03-05T00:55:59.084Z,66.49
2023-03-05T00:58:25.868Z,66.50
2023-03-05T01:00:52.424Z,67.14
2023-03-05T01:03:19.356Z,66.65
2023-03-05T01:05:46.194Z,66.85
2023-03-05T01:08:12.740Z,67.05
2023-03-05T01:10:39.501Z,67.26
2023-03-05T01:13:06.029Z,66.57
2023-03-05T01:15:32.628Z,67.71
2023-03-05T01:17:59.161Z,66.76
2023-03-05T01:20:26.804Z,67.61
2023-03-05T01:22:53.419Z,66.87
2023-03-05T01:25:20.515Z,67.58
2023-03-05T01:27:47.265Z,67.29
2023-03-05T01:30:14.987Z,67.69
2023-03-05T01:32:41.573Z,66.94
2023-03-05T01:35:09.282Z,67.26
2023-03-05T01:37:35.821Z,67.10
2023-03-05T01:40:02.466Z,66.92
2023-03-05T01:42:28.968Z,67.16
2023-03-05T01:45:01.139Z,67.33
2023-03-05T01:47:27.730Z,68.32
2023-03-05T01:49:54.398Z,68.43
2023-03-05T01:52:23.358Z,68.78
2023-03-05T01:54:56.707Z,68.86
2023-03-05T01:57:30.420Z,68.63
2023-03-05T02:00:02.079Z,69.12
2023-03-05T02:02:40.934Z,68.84
2023-03-05T02:05:12.986Z,68.65
2023-03-05T02:07:40.146Z,68.95
2023-03-05T02:10:21.866Z,67.90
2023-03-05T02:12:50.141Z,68.89
2023-03-05T02:15:17.731Z,68.19
2023-03-05T02:17:44.990Z,68.23
2023-03-05T02:20:23.200Z,68.71
2023-03-05T02:22:49.930Z,68.27
2023-03-05T02:25:24.141Z,68.28
2023-03-05T02:28:05.672Z,68.03
2023-03-05T02:30:32.477Z,67.33
2023-03-05T02:32:59.218Z,67.89
2023-03-05T02:35:27.129Z,68.07
2023-03-05T02:37:53.710Z,67.15
2023-03-05T02:40:20.388Z,67.54
2023-03-05T02:42:47.296Z,67.46
2023-03-05T02:45:15.818Z,67.76
2023-03-05T02:47:42.808Z,67.78
2023-03-05T02:50:11.136Z,67.20
2023-03-05T02:52:38.892Z,68.07
2023-03-05T02:55:09.543Z,67.35
2023-03-05T02:57:37.253Z,67.62
2023-03-05T03:00:05.445Z,68.17
2023-03-05T03:02:32.297Z,67.08
2023-03-05T03:04:59.080Z,67.26
2023-03-05T03:07:26.013Z,67.80
2023-03-05T03:09:52.586Z,67.49
2023-03-05T03:12:19.390Z,67.74
2023-03-05T03:14:45.962Z,67.03
2023-03-05T03:17:17.829Z,66.71
2023-03-05T03:19:45.139Z,67.51
2023-03-05T03:22:13.739Z,66.73
2023-03-05T03:24:42.136Z,67.60
2023-03-05T03:27:09.110Z,67.22
2023-03-05T03:29:37.217Z,67.71
2023-03-05T03:32:04.015Z,67.32
2023-03-05T03:34:30.844Z,67.35
2023-03-05T03:36:57.379Z,67.97
2023-03-05T03:39:23.915Z,67.14
2023-03-05T03:41:52.784Z,66.55
2023-03-05T03:44:21.612Z,67.61
2023-03-05T03:46:50.482Z,67.19
2023-03-05T03:49:18.366Z,66.55
2023-03-05T03:51:45.337Z,66.45
2023-03-05T03:54:13.255Z,66.28
2023-03-05T03:56:40.015Z,67.18
2023-03-05T03:59:06.530Z,66.08
2023-03-05T04:01:33.292Z,66.33
2023-03-05T04:04:00.053Z,67.17
2023-03-05T04:06:27.037Z,66.72
2023-03-05T04:08:53.625Z,67.27
2023-03-05T04:11:20.456Z,67.19
2023-03-05T04:13:47.280Z,66.38
2023-03-05T04:16:14.861Z,66.97
2023-03-05T04:18:42.716Z,66.67
2023-03-05T04:21:09.700Z,66.79
2023-03-05T04:23:36.432Z,66.63
2023-03-05T04:26:03.622Z,66.47
2023-03-05T04:28:30.496Z,66.68
2023-03-05T04:30:57.275Z,67.23
2023-03-05T04:33:23.815Z,66.57
2023-03-05T04:35:50.698Z,66.88
2023-03-05T04:38:17.756Z,67.30
2023-03-05T04:40:45.642Z,66.88
2023-03-05T04:43:12.427Z,67.24
2023-03-05T04:45:40.824Z,66.85
2023-03-05T04:48:08.105Z,66.66
2023-03-05T04:50:34.691Z,66.85
2023-03-05T04:53:01.845Z,66.87
2023-03-05T04:55:28.703Z,66.88
2023-03-05T04:57:55.274Z,67.31
2023-03-05T05:00:22.149Z,66.70
2023-03-05T05:02:50.689Z,67.18
2023-03-05T05:05:23.390Z,66.46
2023-03-05T05:07:53.357Z,67.61
2023-03-05T05:10:19.989Z,66.91
2023-03-05T05:12:46.532Z,66.40
2023-03-05T05:15:13.378Z,67.53
2023-03-05T05:17:40.394Z,66.98
2023-03-05T05:20:08.807Z,66.56
2023-03-05T05:22:35.531Z,66.86
2023-03-05T05:25:02.199Z,67.01
2023-03-05T05:27:28.949Z,66.97
2023-03-05T05:29:55.998Z,67.09
2023-03-05T05:32:23.630Z,67.31
2023-03-05T05:34:58.375Z,67.66
2023-03-05T05:37:26.205Z,67.74
2023-03-05T05:39:52.984Z,67.33
2023-03-05T05:42:22.369Z,67.23
2023-03-05T05:44:49.657Z,67.87
2023-03-05T05:47:17.663Z,67.90
2023-03-05T05:49:44.314Z,67.25
2023-03-05T05:52:11.164Z,67.29
2023-03-05T05:54:38.543Z,67.96
2023-03-05T05:57:05.601Z,67.58
2023-03-05T05:59:32.163Z,67.40
2023-03-05T06:01:59.003Z,68.00
2023-03-05T06:04:25.790Z,68.02
2023-03-05T06:06:52.307Z,67.65
2023-03-05T06:09:18.818Z,67.59
2023-03-05T06:11:45.410Z,68.13
2023-03-05T06:14:12.857Z,67.79
2023-03-05T06:16:39.657Z,68.22
2023-03-05T06:19:06.640Z,67.38
2023-03-05T06:21:33.474Z,67.47
2023-03-05T06:24:00.651Z,68.10
2023-03-05T06:26:27.204Z,68.32
2023-03-05T06:28:54.181Z,68.52
2023-03-05T06:31:22.752Z,68.27
2023-03-05T06:33:50.112Z,67.57
2023-03-05T06:36:20.577Z,68.07
2023-03-05T06:38:48.978Z,67.27
2023-03-05T06:41:19.044Z,67.09
2023-03-05T06:43:47.185Z,68.13
2023-03-05T06:46:26.494Z,68.26
2023-03-05T06:48:55.913Z,67.29
2023-03-05T06:51:28.672Z,68.05
2023-03-05T06:53:56.599Z,68.13
2023-03-05T06:56:23.579Z,68.35
2023-03-05T06:58:51.813Z,68.33
2023-03-05T07:01:20.132Z,67.64
2023-03-05T07:03:50.725Z,67.69
2023-03-05T07:06:17.324Z,67.65
2023-03-05T07:08:44.236Z,67.52
2023-03-05T07:11:16.282Z,68.51
2023-03-05T07:13:43.065Z,67.77
2023-03-05T07:16:14.845Z,67.93
2023-03-05T07:18:41.676Z,67.31
2023-03-05T07:21:09.349Z,68.34
2023-03-05T07:23:36.618Z,68.01
2023-03-05T07:26:04.772Z,67.83
2023-03-05T07:28:31.614Z,67.58
2023-03-05T07:31:04.319Z,67.96
2023-03-05T07:33:31.373Z,67.44
2023-03-05T07:35:58.058Z,67.47
2023-03-05T07:38:24.719Z,67.05
2023-03-05T07:40:51.246Z,67.03
2023-03-05T07:43:18.313Z,67.15
2023-03-05T07:45:45.990Z,68.03
2023-03-05T07:48:15.812Z,67.03
2023-03-05T07:50:43.036Z,66.81
2023-03-05T07:53:10.527Z,67.65
2023-03-05T07:55:42.865Z,67.58
2023-03-05T07:58:09.861Z,67.38
2023-03-05T08:00:36.619Z,67.15
2023-03-05T08:03:03.639Z,67.53
2023-03-05T08:05:30.364Z,67.81
2023-03-05T08:07:56.921Z,67.02
2023-03-05T08:10:23.476Z,67.26
2023-03-05T08:12:49.962Z,66.36
2023-03-05T08:15:16.575Z,66.26
2023-03-05T08:17:43.441Z,66.58
2023-03-05T08:20:10.498Z,66.67
2023-03-05T08:22:37.852Z,66.24
2023-03-05T08:25:06.345Z,66.61
2023-03-05T08:27:33.165Z,66.16
2023-03-05T08:30:02.039Z,66.47
2023-03-05T08:32:29.293Z,66.12
2023-03-05T08:34:57.215Z,66.24
2023-03-05T08:37:24.118Z,65.31
2023-03-05T08:39:50.805Z,65.71
2023-03-05T08:42:20.381Z,64.99
2023-03-05T08:44:47.051Z,65.40
2023-03-05T08:47:13.698Z,64.71
2023-03-05T08:49:40.208Z,65.46
2023-03-05T08:52:06.865Z,65.42
2023-03-05T08:54:34.115Z,65.17
2023-03-05T08:57:00.614Z,65.00
2023-03-05T08:59:29.082Z,64.68
2023-03-05T09:01:56.278Z,64.61
2023-03-05T09:04:22.813Z,64.27
2023-03-05T09:06:49.340Z,64.89
2023-03-05T09:09:17.562Z,63.72
2023-03-05T09:11:44.063Z,63.77
2023-03-05T09:14:10.854Z,64.45
2023-03-05T09:16:37.563Z,64.43
2023-03-05T09:19:04.145Z,64.04
2023-03-05T09:21:30.972Z,64.33
2023-03-05T09:23:57.437Z,63.77
2023-03-05T09:26:23.948Z,64.00
2023-03-05T09:28:50.519Z,63.40
2023-03-05T09:31:17.913Z,62.89
2023-03-05T09:33:44.789Z,63.00
2023-03-05T09:36:26.908Z,62.95
2023-03-05T09:38:54.119Z,62.48
2023-03-05T09:41:35.798Z,63.59
2023-03-05T09:44:05.454Z,63.23
2023-03-05T09:46:36.119Z,63.08
2023-03-05T09:49:15.978Z,62.51
2023-03-05T09:51:45.452Z,61.75
2023-03-05T09:54:39.737Z,61.33
2023-03-05T09:57:15.041Z,61.80
2023-03-05T09:59:48.709Z,62.12
2023-03-05T10:02:24.323Z,61.35
2023-03-05T10:04:57.757Z,61.96
2023-03-05T10:07:29.934Z,61.23
2023-03-05T10:10:03.518Z,60.89
2023-03-05T10:12:59.941Z,60.85
2023-03-05T10:16:06.299Z,60.22
2023-03-05T10:18:51.555Z,59.95
2023-03-05T10:21:30.861Z,60.34
2023-03-05T10:24:35.436Z,59.19
2023-03-05T10:27:14.069Z,59.12
2023-03-05T10:30:03.063Z,59.97
2023-03-05T10:32:44.679Z,59.52
2023-03-05T10:35:17.250Z,58.42
2023-03-05T10:37:49.866Z,60.16
2023-03-05T10:40:37.513Z,59.59
2023-03-05T10:43:18.198Z,60.34
2023-03-05T10:45:48.652Z,59.75
2023-03-05T10:48:35.274Z,58.30
2023-03-05T10:51:13.533Z,58.29
2023-03-05T10:53:54.688Z,57.67
2023-03-05T10:56:23.809Z,57.84
2023-03-05T10:58:50.582Z,57.99
2023-03-05T11:01:27.478Z,58.33
2023-03-05T11:04:05.725Z,57.76
2023-03-05T11:06:41.279Z,57.48
2023-03-05T11:09:17.342Z,57.40
2023-03-05T11:11:45.369Z,58.26
2023-03-05T11:14:25.362Z,58.40
2023-03-05T11:16:52.360Z,57.26
2023-03-05T11:19:33.474Z,56.77
2023-03-05T11:22:19.433Z,57.29
2023-03-05T11:25:04.225Z,57.05
2023-03-05T11:27:38.007Z,57.52
2023-03-05T11:30:19.315Z,56.40
2023-03-05T11:32:46.314Z,57.76
2023-03-05T11:35:34.041Z,57.09
2023-03-05T11:38:03.538Z,56.98
2023-03-05T11:40:32.455Z,56.53
2023-03-05T11:43:00.481Z,55.35
2023-03-05T11:45:29.091Z,55.01
2023-03-05T11:48:01.329Z,56.05
2023-03-05T11:50:33.501Z,55.34
2023-03-05T11:53:14.773Z,54.85
2023-03-05T11:55:48.381Z,55.18
2023-03-05T11:58:28.417Z,55.75
2023-03-05T12:00:55.726Z,56.80
2023-03-05T12:03:35.530Z,55.28
2023-03-05T12:06:29.553Z,56.23
2023-03-05T12:09:00.546Z,55.89
2023-03-05T12:11:30.785Z,56.82
2023-03-05T12:14:10.875Z,56.82
2023-03-05T12:16:48.487Z,56.17
2023-03-05T12:19:28.217Z,55.72
2023-03-05T12:21:54.992Z,56.42
2023-03-05T12:24:27.745Z,55.75
2023-03-05T12:26:56.749Z,55.71
2023-03-05T12:29:27.922Z,55.57
2023-03-05T12:31:54.518Z,55.82
2023-03-05T12:34:40.492Z,55.14
2023-03-05T12:37:22.550Z,55.69
2023-03-05T12:40:01.901Z,55.58
2023-03-05T12:42:28.614Z,56.01
2023-03-05T12:45:10.464Z,55.30
2023-03-05T12:47:44.724Z,56.34
2023-03-05T12:50:26.513Z,55.59
2023-03-05T12:52:53.752Z,54.92
2023-03-05T12:55:24.390Z,56.03
2023-03-05T12:58:01.460Z,55.64
2023-03-05T13:00:43.043Z,55.56
2023-03-05T13:03:14.514Z,55.29
2023-03-05T13:05:49.642Z,55.64
2023-03-05T13:08:19.093Z,54.79
2023-03-05T13:10:55.403Z,54.95
2023-03-05T13:13:22.675Z,54.98
2023-03-05T13:15:50.669Z,54.77
2023-03-05T13:18:21.504Z,55.27
2023-03-05T13:20:48.550Z,55.35
2023-03-05T13:23:25.537Z,54.71
2023-03-05T13:26:20.143Z,54.77
2023-03-05T13:29:05.509Z,54.72
2023-03-05T13:31:35.513Z,55.09
2023-03-05T13:34:15.495Z,54.55
2023-03-05T13:36:47.308Z,54.52
2023-03-05T13:39:21.144Z,54.88
2023-03-05T13:42:04.540Z,54.70
2023-03-05T13:44:32.800Z,54.63
2023-03-05T13:47:21.429Z,53.93
2023-03-05T13:49:56.271Z,54.58
2023-03-05T13:52:29.703Z,55.13
2023-03-05T13:54:58.634Z,55.07
2023-03-05T13:57:52.441Z,53.45
2023-03-05T14:00:35.422Z,54.61
2023-03-05T14:03:23.274Z,54.96
2023-03-05T14:05:50.026Z,55.12
2023-03-05T14:08:21.815Z,54.84
2023-03-05T14:10:49.853Z,55.33
2023-03-05T14:13:22.392Z,54.20
2023-03-05T14:16:09.489Z,55.00
2023-03-05T14:18:37.209Z,54.31
2023-03-05T14:21:08.127Z,55.15
2023-03-05T14:23:48.991Z,54.04
2023-03-05T14:26:36.547Z,54.92
2023-03-05T14:29:08.994Z,54.33
2023-03-05T14:31:58.745Z,54.49
2023-03-05T14:34:32.850Z,55.43
2023-03-05T14:37:02.386Z,54.78
2023-03-05T14:39:37.286Z,55.22
2023-03-05T14:42:15.564Z,54.75
2023-03-05T14:44:42.064Z,55.27
2023-03-05T14:47:08.781Z,55.32
2023-03-05T14:49:35.361Z,55.35
2023-03-05T14:52:02.837Z,55.29
2023-03-05T14:54:36.199Z,55.02
2023-03-05T14:57:05.011Z,55.08
2023-03-05T14:59:34.061Z,55.30
2023-03-05T15:02:00.612Z,55.88
2023-03-05T15:04:30.069Z,55.14
2023-03-05T15:06:56.837Z,55.46
2023-03-05T15:09:25.616Z,55.62
2023-03-05T15:11:52.568Z,55.06
2023-03-05T15:14:19.118Z,55.19
2023-03-05T15:16:46.581Z,54.84
2023-03-05T15:19:13.475Z,54.96
2023-03-05T15:21:40.721Z,54.71
2023-03-05T15:24:07.762Z,54.37
2023-03-05T15:26:35.258Z,54.91
2023-03-05T15:29:01.994Z,55.19
2023-03-05T15:31:28.656Z,55.26
2023-03-05T15:33:55.527Z,54.58
2023-03-05T15:36:22.134Z,53.94
2023-03-05T15:38:48.896Z,54.34
2023-03-05T15:41:15.585Z,54.66
2023-03-05T15:43:42.201Z,54.53
2023-03-05T15:46:08.928Z,54.03
2023-03-05T15:48:35.696Z,54.62
2023-03-05T15:51:09.280Z,54.39
2023-03-05T15:53:35.922Z,54.57
2023-03-05T15:56:02.432Z,54.15
2023-03-05T15:58:28.922Z,54.68
2023-03-05T16:00:55.472Z,54.63
2023-03-05T16:03:22.088Z,54.20
2023-03-05T16:05:49.077Z,54.68
2023-03-05T16:08:15.644Z,54.67
2023-03-05T16:10:42.334Z,54.44
2023-03-05T16:13:12.276Z,54.88
2023-03-05T16:15:40.675Z,54.75
2023-03-05T16:18:12.036Z,54.35
2023-03-05T16:20:38.578Z,54.58
2023-03-05T16:23:05.634Z,55.02
2023-03-05T16:25:32.585Z,54.69
2023-03-05T16:27:59.682Z,55.06
2023-03-05T16:30:26.406Z,54.78
2023-03-05T16:32:53.795Z,55.17
2023-03-05T16:35:20.770Z,55.22
2023-03-05T16:37:47.474Z,55.85
2023-03-05T16:40:14.754Z,55.21
2023-03-05T16:42:41.305Z,55.48
2023-03-05T16:45:08.884Z,55.49
2023-03-05T16:47:35.879Z,56.06
2023-03-05T16:50:03.445Z,55.58
2023-03-05T16:52:30.618Z,55.81
2023-03-05T16:54:57.287Z,56.88
2023-03-05T16:57:23.859Z,56.20
2023-03-05T16:59:50.461Z,56.86
2023-03-05T17:02:17.465Z,57.17
2023-03-05T17:04:44.618Z,56.89
2023-03-05T17:07:11.252Z,56.91
2023-03-05T17:09:38.014Z,57.08
2023-03-05T17:12:04.681Z,57.18
2023-03-05T17:14:31.250Z,57.30
2023-03-05T17:16:58.069Z,57.84
2023-03-05T17:19:24.572Z,57.71
2023-03-05T17:21:51.073Z,58.44
2023-03-05T17:24:18.542Z,58.20
2023-03-05T17:26:45.992Z,58.11
2023-03-05T17:29:12.615Z,58.67
2023-03-05T17:31:39.329Z,59.12
2023-03-05T17:34:05.829Z,59.07
2023-03-05T17:36:32.330Z,59.43
2023-03-05T17:38:58.932Z,58.49
2023-03-05T17:41:25.398Z,58.79
2023-03-05T17:43:51.933Z,58.93
2023-03-05T17:46:18.538Z,59.02
2023-03-05T17:48:45.162Z,58.49
2023-03-05T17:51:13.815Z,58.93
2023-03-05T17:53:40.647Z,59.43
2023-03-05T17:56:12.417Z,58.50
2023-03-05T17:58:39.427Z,58.64
2023-03-05T18:01:07.287Z,58.97
2023-03-05T18:03:34.768Z,59.05
2023-03-05T18:06:01.524Z,59.70
2023-03-05T18:08:28.063Z,59.32
2023-03-05T18:10:54.918Z,59.50
2023-03-05T18:13:21.484Z,59.27
2023-03-05T18:15:48.035Z,59.58
2023-03-05T18:18:16.661Z,59.47
2023-03-05T18:20:43.807Z,60.29
2023-03-05T18:23:10.800Z,59.70
2023-03-05T18:25:37.352Z,60.01
2023-03-05T18:28:07.077Z,59.79
2023-03-05T18:30:34.260Z,60.53
2023-03-05T18:33:01.043Z,60.83
2023-03-05T18:35:28.397Z,60.46
2023-03-05T18:37:55.455Z,60.12
2023-03-05T18:40:25.309Z,59.87
2023-03-05T18:42:52.405Z,59.97
2023-03-05T18:45:21.392Z,60.26
2023-03-05T18:47:48.179Z,59.92
2023-03-05T18:50:17.432Z,59.80
2023-03-05T18:52:45.275Z,59.88
2023-03-05T18:55:21.622Z,60.06
2023-03-05T18:57:48.195Z,60.39
2023-03-05T19:00:27.539Z,61.37
2023-03-05T19:02:55.234Z,61.00
2023-03-05T19:05:22.336Z,61.13
2023-03-05T19:07:49.174Z,61.26
2023-03-05T19:10:16.745Z,61.65
2023-03-05T19:12:44.030Z,60.49
2023-03-05T19:15:13.085Z,61.38
2023-03-05T19:17:39.851Z,61.26
2023-03-05T19:20:07.494Z,60.93
2023-03-05T19:22:34.179Z,61.50
2023-03-05T19:25:00.684Z,61.71
2023-03-05T19:27:27.720Z,61.91
2023-03-05T19:29:54.823Z,62.11
2023-03-05T19:32:21.703Z,61.54
2023-03-05T19:34:48.739Z,62.50
2023-03-05T19:37:15.755Z,62.28
2023-03-05T19:39:42.439Z,61.49
2023-03-05T19:42:09.138Z,61.70
2023-03-05T19:44:35.847Z,62.50
2023-03-05T19:47:02.474Z,61.77
2023-03-05T19:49:29.288Z,61.57
2023-03-05T19:51:55.774Z,62.51
2023-03-05T19:54:23.283Z,62.67
2023-03-05T19:56:52.347Z,61.94
2023-03-05T19:59:20.708Z,62.88
2023-03-05T20:01:48.616Z,62.91
2023-03-05T20:04:21.261Z,62.39
2023-03-05T20:06:48.013Z,62.43
2023-03-05T20:09:15.332Z,61.98
2023-03-05T20:11:42.349Z,62.29
2023-03-05T20:14:09.865Z,62.41
2023-03-05T20:16:37.573Z,62.97
2023-03-05T20:19:05.865Z,63.23
2023-03-05T20:21:35.360Z,62.72
2023-03-05T20:24:04.683Z,63.18
2023-03-05T20:26:34.373Z,62.61
2023-03-05T20:29:00.881Z,62.60
2023-03-05T20:31:27.943Z,62.94
2023-03-05T20:33:55.867Z,63.62
2023-03-05T20:36:23.484Z,62.99
2023-03-05T20:38:50.254Z,62.59
2023-03-05T20:41:18.942Z,62.53
2023-03-05T20:43:47.806Z,63.25
2023-03-05T20:46:32.878Z,63.58
2023-03-05T20:49:01.947Z,63.39
2023-03-05T20:51:33.041Z,63.21
2023-03-05T20:54:04.126Z,63.50
2023-03-05T20:56:32.524Z,63.73
2023-03-05T20:59:00.504Z,63.06
2023-03-05T21:01:27.959Z,63.57
2023-03-05T21:03:56.326Z,64.03
2023-03-05T21:06:23.608Z,63.44
2023-03-05T21:08:50.266Z,63.79
2023-03-05T21:11:17.074Z,63.70
2023-03-05T21:13:44.375Z,63.93
2023-03-05T21:16:16.214Z,64.38
2023-03-05T21:18:42.750Z,63.82
2023-03-05T21:21:09.291Z,64.19
2023-03-05T21:23:35.783Z,63.93
2023-03-05T21:26:02.761Z,64.04
2023-03-05T21:28:29.785Z,64.43
2023-03-05T21:30:56.681Z,64.55
2023-03-05T21:33:30.026Z,63.88
2023-03-05T21:35:57.212Z,64.07
2023-03-05T21:38:25.181Z,64.05
2023-03-05T21:40:53.470Z,64.35
2023-03-05T21:43:22.756Z,64.76
2023-03-05T21:45:51.037Z,63.96
2023-03-05T21:48:17.774Z,64.18
2023-03-05T21:50:45.219Z,64.27
2023-03-05T21:53:12.981Z,63.99
2023-03-05T21:55:40.339Z,64.93
2023-03-05T21:58:06.830Z,64.88
2023-03-05T22:00:33.394Z,65.23
2023-03-05T22:02:59.857Z,65.05
2023-03-05T22:05:26.387Z,65.06
2023-03-05T22:07:52.903Z,64.23
2023-03-05T22:10:20.240Z,64.25
2023-03-05T22:12:59.809Z,65.25
2023-03-05T22:15:26.373Z,65.21
2023-03-05T22:17:52.822Z,65.07
2023-03-05T22:20:19.337Z,65.84
2023-03-05T22:22:46.222Z,65.76
2023-03-05T22:25:14.974Z,65.41
2023-03-05T22:27:42.650Z,66.21
2023-03-05T22:30:11.540Z,66.01
2023-03-05T22:32:38.498Z,65.68
2023-03-05T22:35:06.347Z,66.12
2023-03-05T22:37:33.135Z,65.40
2023-03-05T22:39:59.620Z,65.71
2023-03-05T22:42:26.265Z,65.47
2023-03-05T22:44:57.264Z,65.63
2023-03-05T22:47:25.298Z,66.80
2023-03-05T22:49:51.816Z,65.99
2023-03-05T22:52:18.471Z,66.47
2023-03-05T22:54:44.989Z,66.78
2023-03-05T22:57:11.811Z,65.92
2023-03-05T22:59:38.283Z,66.17
2023-03-05T23:02:05.008Z,66.97
2023-03-05T23:04:35.117Z,66.37
2023-03-05T23:07:01.611Z,67.08
2023-03-05T23:09:28.139Z,66.20
2023-03-05T23:11:54.727Z,67.00
2023-03-05T23:14:21.274Z,66.91
2023-03-05T23:16:47.771Z,66.86
2023-03-05T23:19:14.277Z,67.16
2023-03-05T23:21:43.874Z,67.26
2023-03-05T23:24:10.358Z,66.88
2023-03-05T23:26:36.861Z,66.68
2023-03-05T23:29:03.344Z,67.13
2023-03-05T23:31:29.821Z,67.67
2023-03-05T23:33:56.340Z,67.92
2023-03-05T23:36:26.116Z,67.28
2023-03-05T23:38:52.625Z,67.44
2023-03-05T23:41:19.071Z,67.99
2023-03-05T23:43:45.586Z,67.29
2023-03-05T23:46:12.344Z,67.97
2023-03-05T23:48:38.940Z,68.05
2023-03-05T23:51:10.092Z,67.95
2023-03-05T23:53:37.213Z,68.66
2023-03-05T23:56:09.099Z,68.33
2023-03-05T23:58:37.505Z,67.86
